Time;durP1;ratioP1;P1;durP2;ratioP2;P2;SDS_P1;SDS_P2;PMS_P1;PMS_P2;Temp;Humidity;BMP_temperature;BMP_pressure;BME280_temperature;BME280_humidity;BME280_pressure;Samples;Min_cycle;Max_cycle;Signal;HPM_P1;HPM_P2
2021/08/12 00:00:38;;;;;;;30.55;22.55;;;;;;;-145.71;100.00;60690.53;5031534;28;20733;-82
2021/08/12 00:03:03;;;;;;;28.20;21.80;;;;;;;-145.71;100.00;60690.53;5013128;28;20029;-82
2021/08/12 00:05:29;;;;;;;37.10;26.77;;;;;;;-145.71;100.00;60690.53;5015058;28;20029;-83
2021/08/12 00:07:54;;;;;;;38.83;25.08;;;;;;;-145.71;100.00;60690.53;5035174;28;20029;-83
2021/08/12 00:10:20;;;;;;;29.48;23.05;;;;;;;-145.71;100.00;60690.53;5016044;28;20025;-83
2021/08/12 00:12:45;;;;;;;30.15;23.88;;;;;;;-145.71;100.00;60690.53;5031637;28;20032;-83
2021/08/12 00:15:11;;;;;;;37.67;27.83;;;;;;;-145.71;100.00;60690.53;5031726;28;20076;-83
2021/08/12 00:17:37;;;;;;;24.50;21.85;;;;;;;-145.71;100.00;60690.53;5031511;28;20033;-83
2021/08/12 00:20:02;;;;;;;26.92;22.58;;;;;;;-145.71;100.00;60690.53;5031087;28;20033;-82
2021/08/12 00:22:28;;;;;;;36.72;26.75;;;;;;;-145.71;100.00;60690.53;5013088;28;20060;-82
2021/08/12 00:24:53;;;;;;;35.25;24.55;;;;;;;-145.71;100.00;60690.53;5013183;28;20049;-83
2021/08/12 00:27:20;;;;;;;28.83;23.13;;;;;;;-145.71;100.00;60690.53;5030526;28;20601;-83
2021/08/12 00:29:46;;;;;;;29.67;22.00;;;;;;;-145.71;100.00;60690.53;5012713;28;20037;-82
2021/08/12 00:32:12;;;;;;;29.25;22.75;;;;;;;-145.71;100.00;60690.53;5030618;28;20033;-83
2021/08/12 00:34:37;;;;;;;35.55;26.77;;;;;;;-145.71;100.00;60690.53;5033743;28;20032;-83
2021/08/12 00:37:04;;;;;;;25.98;20.25;;;;;;;-145.71;100.00;60690.53;5016603;28;20093;-83
2021/08/12 00:39:30;;;;;;;26.70;21.23;;;;;;;-145.71;100.00;60690.53;5031985;28;20045;-83
2021/08/12 00:41:56;;;;;;;33.00;24.23;;;;;;;-145.71;100.00;60690.53;5030890;28;20029;-83
2021/08/12 00:44:21;;;;;;;34.83;25.02;;;;;;;-145.71;100.00;60690.53;5030953;28;20683;-83
2021/08/12 00:46:46;;;;;;;27.63;24.05;;;;;;;-145.71;100.00;60690.53;5030553;28;20037;-83
2021/08/12 00:49:12;;;;;;;26.67;22.90;;;;;;;-145.71;100.00;60690.53;5030458;28;20029;-83
2021/08/12 00:51:39;;;;;;;29.67;24.27;;;;;;;-145.71;100.00;60690.53;5030627;28;20051;-83
2021/08/12 00:54:04;;;;;;;44.40;30.73;;;;;;;-145.71;100.00;60690.53;5030608;28;20045;-83
2021/08/12 00:56:30;;;;;;;45.15;31.70;;;;;;;-145.71;100.00;60690.53;5030158;28;20037;-83
2021/08/12 00:58:55;;;;;;;41.78;31.05;;;;;;;-145.71;100.00;60690.53;5029907;28;20045;-83
2021/08/12 01:01:20;;;;;;;50.20;34.20;;;;;;;-145.71;100.00;60690.53;5012412;28;20078;-82
2021/08/12 01:03:46;;;;;;;36.40;29.10;;;;;;;-145.71;100.00;60690.53;5016829;28;20048;-84
2021/08/12 01:06:17;;;;;;;37.80;27.95;;;;;;;-145.71;100.00;60690.53;5014064;28;20033;-83
2021/08/12 01:09:12;;;;;;;43.47;32.53;;;;;;;-145.71;100.00;60690.53;5030763;28;20026;-83
2021/08/12 01:11:41;;;;;;;32.92;26.23;;;;;;;-145.71;100.00;60690.53;5030775;28;20029;-83
2021/08/12 01:14:47;;;;;;;39.47;28.63;;;;;;;-145.71;100.00;60690.53;5013792;28;20021;-83
2021/08/12 01:17:21;;;;;;;33.80;27.42;;;;;;;-145.71;100.00;60690.53;5013619;28;20030;-83
2021/08/12 01:20:04;;;;;;;41.88;31.35;;;;;;;-145.71;100.00;60690.53;5031391;28;20029;-83
2021/08/12 01:22:31;;;;;;;53.75;34.25;;;;;;;-145.71;100.00;60690.53;5030973;28;20033;-83
2021/08/12 01:25:02;;;;;;;51.90;32.55;;;;;;;-145.71;100.00;60690.53;5012422;28;20160;-82
2021/08/12 01:27:34;;;;;;;52.97;34.45;;;;;;;-145.71;100.00;60690.53;5030145;28;20108;-83
2021/08/12 01:30:07;;;;;;;41.65;31.65;;;;;;;-145.71;100.00;60690.53;5029609;28;20029;-83
2021/08/12 01:32:46;;;;;;;47.15;35.90;;;;;;;-145.71;100.00;60690.53;5030222;28;20040;-82
2021/08/12 01:35:15;;;;;;;42.90;30.67;;;;;;;-145.71;100.00;60690.53;5033600;28;20446;-83
2021/08/12 01:37:47;;;;;;;45.53;32.90;;;;;;;-145.71;100.00;60690.53;5033160;28;20025;-83
2021/08/12 01:40:15;;;;;;;48.60;33.20;;;;;;;-145.71;100.00;60690.53;5032481;28;20029;-83
2021/08/12 01:42:43;;;;;;;44.53;31.35;;;;;;;-145.71;100.00;60690.53;5032149;28;20037;-83
2021/08/12 01:45:08;;;;;;;49.40;34.53;;;;;;;-145.71;100.00;60690.53;5031674;28;20116;-83
2021/08/12 01:47:35;;;;;;;57.47;35.97;;;;;;;-145.71;100.00;60690.53;5030195;28;20112;-83
2021/08/12 01:50:05;;;;;;;49.42;35.15;;;;;;;-145.71;100.00;60690.53;5012276;28;20033;-83
2021/08/12 01:52:34;;;;;;;43.35;31.42;;;;;;;-145.71;100.00;60690.53;5030271;28;20121;-83
2021/08/12 01:54:59;;;;;;;49.97;33.88;;;;;;;-145.71;100.00;60690.53;5029959;28;20032;-83
2021/08/12 01:57:25;;;;;;;47.13;32.60;;;;;;;-145.71;100.00;60690.53;5030256;28;20401;-83
2021/08/12 01:59:53;;;;;;;42.65;32.22;;;;;;;-145.71;100.00;60690.53;5011910;28;20057;-83
2021/08/12 02:02:19;;;;;;;55.85;36.60;;;;;;;-145.71;100.00;60690.53;5012140;28;20017;-83
2021/08/12 02:04:46;;;;;;;57.05;34.85;;;;;;;-145.71;100.00;60690.53;5032891;28;20030;-84
2021/08/12 02:07:12;;;;;;;34.22;27.63;;;;;;;-145.71;100.00;60690.53;5034207;28;20477;-83
2021/08/12 02:09:38;;;;;;;45.72;31.90;;;;;;;-145.71;100.00;60690.53;5036075;28;20066;-83
2021/08/12 02:12:07;;;;;;;50.28;32.45;;;;;;;-145.71;100.00;60690.53;5035394;28;20100;-83
2021/08/12 02:14:34;;;;;;;47.10;33.50;;;;;;;-145.71;100.00;60690.53;5034849;28;20021;-82
2021/08/12 02:16:59;;;;;;;38.05;27.45;;;;;;;-145.71;100.00;60690.53;5035071;28;20724;-83
2021/08/12 02:19:24;;;;;;;40.85;30.08;;;;;;;-145.71;100.00;60690.53;5034157;28;20043;-83
2021/08/12 02:21:56;;;;;;;41.60;30.55;;;;;;;-145.71;100.00;60690.53;5016121;28;20040;-83
2021/08/12 02:24:40;;;;;;;49.08;32.10;;;;;;;-145.71;100.00;60690.53;5015710;28;20060;-83
2021/08/12 02:27:10;;;;;;;29.80;25.60;;;;;;;-145.71;100.00;60690.53;5033019;28;20037;-83
2021/08/12 02:29:37;;;;;;;46.72;31.55;;;;;;;-145.71;100.00;60690.53;5033323;28;20056;-83
2021/08/12 02:32:06;;;;;;;37.20;27.60;;;;;;;-145.71;100.00;60690.53;5032819;28;20048;-82
2021/08/12 02:34:34;;;;;;;50.30;32.55;;;;;;;-145.71;100.00;60690.53;5033044;28;20397;-83
2021/08/12 02:37:03;;;;;;;41.47;29.60;;;;;;;-145.71;100.00;60690.53;5014900;28;20057;-83
2021/08/12 02:39:29;;;;;;;41.00;27.52;;;;;;;-145.71;100.00;60690.53;5033110;28;20033;-83
2021/08/12 02:41:56;;;;;;;41.80;31.50;;;;;;;-145.71;100.00;60690.53;5032928;28;20492;-82
2021/08/12 02:44:23;;;;;;;38.17;29.30;;;;;;;-145.71;100.00;60690.53;5019216;28;20045;-84
2021/08/12 02:46:49;;;;;;;41.67;28.45;;;;;;;-145.71;100.00;60690.53;5037022;28;20480;-83
2021/08/12 02:49:15;;;;;;;31.52;23.45;;;;;;;-145.71;100.00;60690.53;5037329;28;20044;-83
2021/08/12 02:51:41;;;;;;;45.10;31.17;;;;;;;-145.71;100.00;60690.53;5036824;28;20052;-83
2021/08/12 02:54:08;;;;;;;35.58;25.45;;;;;;;-145.71;100.00;60690.53;5034348;28;20033;-82
2021/08/12 02:56:35;;;;;;;38.58;29.10;;;;;;;-145.71;100.00;60690.53;5032879;28;20029;-83
2021/08/12 02:59:02;;;;;;;35.08;24.00;;;;;;;-145.71;100.00;60690.53;5032626;28;20417;-83
2021/08/12 03:01:30;;;;;;;36.35;26.95;;;;;;;-145.71;100.00;60690.53;5035580;28;20090;-83
2021/08/12 03:03:58;;;;;;;39.03;28.13;;;;;;;-145.71;100.00;60690.53;5034854;28;20029;-83
2021/08/12 03:06:24;;;;;;;35.15;25.63;;;;;;;-145.71;100.00;60690.53;5015948;28;20496;-83
2021/08/12 03:08:50;;;;;;;36.67;26.90;;;;;;;-145.71;100.00;60690.53;5015495;28;20025;-83
2021/08/12 03:11:17;;;;;;;37.20;24.80;;;;;;;-145.71;100.00;60690.53;5015112;28;20354;-83
2021/08/12 03:13:44;;;;;;;31.58;23.80;;;;;;;-145.71;100.00;60690.53;5014999;28;20040;-83
2021/08/12 03:16:09;;;;;;;30.25;22.00;;;;;;;-145.71;100.00;60690.53;5014491;28;20033;-83
2021/08/12 03:18:35;;;;;;;35.08;25.45;;;;;;;-145.71;100.00;60690.53;5031835;28;20040;-83
2021/08/12 03:21:05;;;;;;;39.10;24.67;;;;;;;-145.71;100.00;60690.53;5032179;28;20065;-83
2021/08/12 03:23:30;;;;;;;30.17;23.55;;;;;;;-145.71;100.00;60690.53;5034175;28;20053;-83
2021/08/12 03:25:56;;;;;;;31.75;22.00;;;;;;;-145.71;100.00;60690.53;5032237;28;20032;-83
2021/08/12 03:28:21;;;;;;;34.83;24.52;;;;;;;-145.71;100.00;60690.53;5018382;28;20093;-83
2021/08/12 03:30:46;;;;;;;31.40;22.75;;;;;;;-145.71;100.00;60690.53;5018009;28;20036;-84
2021/08/12 03:33:12;;;;;;;33.20;25.35;;;;;;;-145.71;100.00;60690.53;5014388;28;20035;-83
2021/08/12 03:35:37;;;;;;;31.58;24.58;;;;;;;-145.71;100.00;60690.53;5035864;28;20567;-84
2021/08/12 03:38:02;;;;;;;27.52;20.58;;;;;;;-145.71;100.00;60690.53;5036621;28;20029;-84
2021/08/12 03:40:28;;;;;;;29.30;21.58;;;;;;;-145.71;100.00;60690.53;5035715;28;20029;-84
2021/08/12 03:42:53;;;;;;;31.23;22.35;;;;;;;-145.71;100.00;60690.53;5037226;28;20028;-84
2021/08/12 03:45:18;;;;;;;31.63;24.58;;;;;;;-145.71;100.00;60690.53;5036042;28;20021;-84
2021/08/12 03:47:44;;;;;;;29.45;22.10;;;;;;;-145.71;100.00;60690.53;5034960;28;20486;-83
2021/08/12 03:50:10;;;;;;;26.15;21.27;;;;;;;-145.71;100.00;60690.53;5033697;28;20041;-83
2021/08/12 03:52:36;;;;;;;26.80;21.75;;;;;;;-145.71;100.00;60690.53;5031687;28;20112;-83
2021/08/12 03:55:01;;;;;;;34.00;23.67;;;;;;;-145.71;100.00;60690.53;5013435;28;20116;-83
2021/08/12 03:57:26;;;;;;;31.40;24.08;;;;;;;-145.71;100.00;60690.53;5031405;28;20041;-83
2021/08/12 03:59:52;;;;;;;27.02;21.05;;;;;;;-145.71;100.00;60690.53;5031463;28;20025;-83
2021/08/12 04:02:17;;;;;;;30.42;23.13;;;;;;;-145.71;100.00;60690.53;5031000;28;20029;-82
2021/08/12 04:04:42;;;;;;;26.55;21.45;;;;;;;-145.71;100.00;60690.53;5013222;28;20036;-83
2021/08/12 04:07:08;;;;;;;26.13;22.08;;;;;;;-145.71;100.00;60690.53;5031086;28;20025;-83
2021/08/12 04:09:33;;;;;;;30.77;23.08;;;;;;;-145.71;100.00;60690.53;5031326;28;20543;-83
2021/08/12 04:11:58;;;;;;;29.48;23.80;;;;;;;-145.71;100.00;60690.53;5014128;28;20091;-83
2021/08/12 04:14:24;;;;;;;25.73;20.52;;;;;;;-145.71;100.00;60690.53;5036255;28;20074;-84
2021/08/12 04:16:51;;;;;;;31.75;24.30;;;;;;;-145.71;100.00;60690.53;5015116;28;20029;-83
2021/08/12 04:19:16;;;;;;;32.20;24.42;;;;;;;-145.71;100.00;60690.53;5030855;28;20509;-83
2021/08/12 04:21:42;;;;;;;29.23;22.23;;;;;;;-145.71;100.00;60690.53;5031007;28;20138;-83
2021/08/12 04:24:07;;;;;;;31.90;24.27;;;;;;;-145.71;100.00;60690.53;5012954;28;20045;-83
2021/08/12 04:26:32;;;;;;;32.97;22.15;;;;;;;-145.71;100.00;60690.53;5030839;28;20428;-83
2021/08/12 04:28:58;;;;;;;24.08;21.08;;;;;;;-145.71;100.00;60690.53;5030832;28;20477;-83
2021/08/12 04:31:24;;;;;;;22.15;18.75;;;;;;;-145.71;100.00;60690.53;5030189;28;20500;-83
2021/08/12 04:33:50;;;;;;;21.45;18.45;;;;;;;-145.71;100.00;60690.53;5030606;28;20037;-83
2021/08/12 04:36:16;;;;;;;23.48;19.30;;;;;;;-145.71;100.00;60690.53;5012501;28;20108;-83
2021/08/12 04:38:41;;;;;;;27.35;18.23;;;;;;;-145.71;100.00;60690.53;5030569;28;20136;-83
2021/08/12 04:41:07;;;;;;;22.85;17.60;;;;;;;-145.71;100.00;60690.53;5033923;28;20061;-83
2021/08/12 04:43:32;;;;;;;20.52;16.67;;;;;;;-145.71;100.00;60690.53;5032214;28;20358;-84
2021/08/12 04:45:57;;;;;;;24.35;18.10;;;;;;;-145.71;100.00;60690.53;5015580;28;20025;-83
2021/08/12 04:48:23;;;;;;;19.88;17.30;;;;;;;-145.71;100.00;60690.53;5014903;28;20440;-83
2021/08/12 04:50:49;;;;;;;20.20;18.02;;;;;;;-145.71;100.00;60690.53;5032744;28;20121;-83
2021/08/12 04:53:14;;;;;;;20.55;16.30;;;;;;;-145.71;100.00;60690.53;5033816;28;20052;-83
2021/08/12 04:55:39;;;;;;;21.13;17.20;;;;;;;-145.71;100.00;60690.53;5033101;28;20036;-83
2021/08/12 04:58:05;;;;;;;18.77;15.32;;;;;;;-145.71;100.00;60690.53;5032215;28;20079;-83
2021/08/12 05:00:31;;;;;;;20.08;15.73;;;;;;;-145.71;100.00;60690.53;5031759;28;20103;-83
2021/08/12 05:02:56;;;;;;;18.52;15.13;;;;;;;-145.71;100.00;60690.53;5030801;28;20034;-83
2021/08/12 05:05:21;;;;;;;17.05;14.27;;;;;;;-145.71;100.00;60690.53;5013718;28;20025;-83
2021/08/12 05:07:47;;;;;;;15.95;14.10;;;;;;;-145.71;100.00;60690.53;5030989;28;20036;-83
2021/08/12 05:10:12;;;;;;;14.60;12.93;;;;;;;-145.71;100.00;60690.53;5032060;28;20037;-83
2021/08/12 05:12:38;;;;;;;17.60;13.52;;;;;;;-145.71;100.00;60690.53;5030418;28;20029;-83
2021/08/12 05:15:03;;;;;;;15.05;12.55;;;;;;;-145.71;100.00;60690.53;5030232;28;20721;-83
2021/08/12 05:17:29;;;;;;;16.70;12.52;;;;;;;-145.71;100.00;60690.53;5032043;28;20093;-83
2021/08/12 05:19:54;;;;;;;14.35;12.85;;;;;;;-145.71;100.00;60690.53;5035879;28;20385;-84
2021/08/12 05:22:21;;;;;;;13.50;11.10;;;;;;;-145.71;100.00;60690.53;5017476;28;20022;-84
2021/08/12 05:24:46;;;;;;;11.43;10.23;;;;;;;-145.71;100.00;60690.53;5033835;28;20057;-84
2021/08/12 05:27:12;;;;;;;13.07;11.50;;;;;;;-145.71;100.00;60690.53;5015361;28;20032;-83
2021/08/12 05:29:37;;;;;;;15.68;11.25;;;;;;;-145.71;100.00;60690.53;5032922;28;20043;-84
2021/08/12 05:32:03;;;;;;;12.73;10.23;;;;;;;-145.71;100.00;60690.53;5014150;28;20033;-84
2021/08/12 05:34:28;;;;;;;19.88;11.05;;;;;;;-145.71;100.00;60690.53;5013782;28;20040;-84
2021/08/12 05:36:53;;;;;;;15.70;10.63;;;;;;;-145.71;100.00;60690.53;5031027;28;20060;-84
2021/08/12 05:39:19;;;;;;;13.20;11.02;;;;;;;-145.71;100.00;60690.53;5013354;28;20026;-84
2021/08/12 05:41:44;;;;;;;13.48;8.98;;;;;;;-145.71;100.00;60690.53;5030087;28;20034;-84
2021/08/12 05:44:09;;;;;;;14.65;11.38;;;;;;;-145.71;100.00;60690.53;5033689;28;20439;-83
2021/08/12 05:46:35;;;;;;;13.57;10.32;;;;;;;-145.71;100.00;60690.53;5016494;28;20033;-84
2021/08/12 05:49:00;;;;;;;15.63;10.70;;;;;;;-145.71;100.00;60690.53;5034331;28;20469;-84
2021/08/12 05:51:25;;;;;;;13.75;10.65;;;;;;;-145.71;100.00;60690.53;5020166;28;20032;-84
2021/08/12 05:53:51;;;;;;;15.85;12.50;;;;;;;-145.71;100.00;60690.53;5002983;28;20042;-84
2021/08/12 05:56:16;;;;;;;14.50;10.40;;;;;;;-145.71;100.00;60690.53;5016351;28;20033;-84
2021/08/12 05:58:41;;;;;;;17.45;11.25;;;;;;;-145.71;100.00;60690.53;5015336;28;20808;-84
2021/08/12 06:01:07;;;;;;;15.43;12.02;;;;;;;-145.71;100.00;60690.53;5014150;28;20117;-84
2021/08/12 06:03:33;;;;;;;15.45;11.73;;;;;;;-145.71;100.00;60690.53;5032378;28;20083;-84
2021/08/12 06:05:58;;;;;;;15.10;10.77;;;;;;;-145.71;100.00;60690.53;5011823;28;20029;-84
2021/08/12 06:08:24;;;;;;;14.77;12.65;;;;;;;-145.71;100.00;60690.53;5020022;28;20108;-84
2021/08/12 06:10:49;;;;;;;17.08;11.80;;;;;;;-145.71;100.00;60690.53;5002545;28;20500;-83
2021/08/12 06:13:14;;;;;;;16.90;12.20;;;;;;;-145.71;100.00;60690.53;5026149;28;20036;-84
2021/08/12 06:15:40;;;;;;;21.52;12.10;;;;;;;-145.71;100.00;60690.53;5022324;28;20030;-84
2021/08/12 06:18:15;;;;;;;13.35;11.90;;;;;;;-145.71;100.00;60690.53;5031745;28;20025;-84
2021/08/12 06:20:42;;;;;;;15.20;12.25;;;;;;;-145.71;100.00;60690.53;5028357;28;20100;-84
2021/08/12 06:23:09;;;;;;;15.85;12.20;;;;;;;-145.71;100.00;60690.53;5016887;28;20767;-84
2021/08/12 06:25:36;;;;;;;16.02;12.82;;;;;;;-145.71;100.00;60690.53;5014716;28;20029;-84
2021/08/12 06:28:02;;;;;;;15.27;12.63;;;;;;;-145.71;100.00;60690.53;5013795;28;20025;-85
2021/08/12 06:30:29;;;;;;;17.42;12.45;;;;;;;-145.71;100.00;60690.53;5021049;28;20025;-84
2021/08/12 06:32:55;;;;;;;15.73;12.05;;;;;;;-145.71;100.00;60690.53;5032484;28;20033;-84
2021/08/12 06:35:20;;;;;;;15.85;13.13;;;;;;;-145.71;100.00;60690.53;5032529;28;20091;-83
2021/08/12 06:37:48;;;;;;;16.60;12.25;;;;;;;-145.71;100.00;60690.53;5015688;28;20029;-84
2021/08/12 06:40:15;;;;;;;16.98;13.00;;;;;;;-145.71;100.00;60690.53;5032163;28;20080;-83
2021/08/12 06:42:41;;;;;;;14.23;11.43;;;;;;;-145.71;100.00;60690.53;5021759;28;20060;-83
2021/08/12 06:45:07;;;;;;;18.77;12.30;;;;;;;-145.71;100.00;60690.53;5029736;28;20037;-84
2021/08/12 06:47:35;;;;;;;15.52;11.95;;;;;;;-145.71;100.00;60690.53;5019051;28;20064;-84
2021/08/12 06:50:00;;;;;;;13.98;12.18;;;;;;;-145.71;100.00;60690.53;5014924;28;20328;-83
2021/08/12 06:52:25;;;;;;;14.20;11.05;;;;;;;-145.71;100.00;60690.53;4995427;28;20068;-84
2021/08/12 06:54:51;;;;;;;13.13;11.23;;;;;;;-145.71;100.00;60690.53;4993215;28;20140;-83
2021/08/12 06:57:16;;;;;;;13.73;11.45;;;;;;;-145.71;100.00;60690.53;5012015;28;20057;-84
2021/08/12 06:59:41;;;;;;;13.02;11.23;;;;;;;-145.71;100.00;60690.53;5014257;28;20037;-84
2021/08/12 07:02:06;;;;;;;14.05;11.27;;;;;;;-145.71;100.00;60690.53;5007941;28;20083;-84
2021/08/12 07:04:32;;;;;;;12.60;11.30;;;;;;;-145.71;100.00;60690.53;5020898;28;20148;-84
2021/08/12 07:06:57;;;;;;;14.75;11.80;;;;;;;-145.71;100.00;60690.53;5000436;28;20065;-84
2021/08/12 07:09:22;;;;;;;11.95;10.40;;;;;;;-145.71;100.00;60690.53;5029488;28;20030;-84
2021/08/12 07:11:50;;;;;;;12.90;10.63;;;;;;;-145.71;100.00;60690.53;5016864;28;20481;-84
2021/08/12 07:14:15;;;;;;;12.75;11.13;;;;;;;-145.71;100.00;60690.53;5025919;28;20105;-84
2021/08/12 07:16:40;;;;;;;13.38;10.57;;;;;;;-145.71;100.00;60690.53;5005163;28;20108;-84
2021/08/12 07:19:06;;;;;;;12.88;11.35;;;;;;;-145.71;100.00;60690.53;5018815;28;20091;-84
2021/08/12 07:21:31;;;;;;;14.25;11.43;;;;;;;-145.71;100.00;60690.53;5026782;28;20524;-84
2021/08/12 07:23:56;;;;;;;12.13;10.55;;;;;;;-145.71;100.00;60690.53;4992710;28;20239;-84
2021/08/12 07:26:24;;;;;;;10.90;9.73;;;;;;;-145.71;100.00;60690.53;5018185;28;20474;-84
2021/08/12 07:28:50;;;;;;;12.27;10.07;;;;;;;-145.71;100.00;60690.53;5029799;28;20032;-84
2021/08/12 07:31:16;;;;;;;12.10;10.40;;;;;;;-145.71;100.00;60690.53;5014417;28;20030;-83
2021/08/12 07:33:42;;;;;;;9.52;7.85;;;;;;;-145.71;100.00;60690.53;5029091;28;20030;-84
2021/08/12 07:36:07;;;;;;;10.18;8.60;;;;;;;-145.71;100.00;60690.53;5006440;28;20079;-84
2021/08/12 07:38:34;;;;;;;9.05;7.55;;;;;;;-145.71;100.00;60690.53;4992192;28;20018;-83
2021/08/12 07:41:00;;;;;;;8.98;8.07;;;;;;;-145.71;100.00;60690.53;5005165;28;20040;-84
2021/08/12 07:43:27;;;;;;;9.90;7.05;;;;;;;-145.71;100.00;60690.53;5030918;28;20075;-84
2021/08/12 07:45:53;;;;;;;9.27;6.80;;;;;;;-145.71;100.00;60690.53;5010418;28;20466;-84
2021/08/12 07:48:18;;;;;;;10.20;7.75;;;;;;;-145.71;100.00;60690.53;4991920;28;20053;-84
2021/08/12 07:50:45;;;;;;;8.30;6.57;;;;;;;-145.71;100.00;60690.53;5010188;28;20029;-84
2021/08/12 07:53:10;;;;;;;10.65;6.55;;;;;;;-145.71;100.00;60690.53;5009767;28;20030;-84
2021/08/12 07:55:36;;;;;;;9.73;6.70;;;;;;;-145.71;100.00;60690.53;5010053;28;20482;-84
2021/08/12 07:58:02;;;;;;;8.30;6.68;;;;;;;-145.71;100.00;60690.53;4996336;28;20749;-84
2021/08/12 08:00:28;;;;;;;9.88;6.63;;;;;;;-145.71;100.00;60690.53;5003129;28;20112;-84
2021/08/12 08:02:54;;;;;;;13.05;7.28;;;;;;;-145.71;100.00;60690.53;5022252;28;20942;-83
2021/08/12 08:05:21;;;;;;;11.90;6.50;;;;;;;-145.71;100.00;60690.53;5013049;28;20108;-84
2021/08/12 08:07:49;;;;;;;6.60;5.55;;;;;;;-145.71;100.00;60690.53;5025370;28;20105;-84
2021/08/12 08:10:15;;;;;;;7.43;5.63;;;;;;;-145.71;100.00;60690.53;5016002;28;20035;-84
2021/08/12 08:12:42;;;;;;;8.93;6.78;;;;;;;-145.71;100.00;60690.53;5018684;28;20030;-84
2021/08/12 08:15:09;;;;;;;8.57;5.80;;;;;;;-145.71;100.00;60690.53;5013238;28;20057;-84
2021/08/12 08:17:34;;;;;;;9.18;6.30;;;;;;;-145.71;100.00;60690.53;5011639;28;20037;-84
2021/08/12 08:20:00;;;;;;;8.50;5.57;;;;;;;-145.71;100.00;60690.53;5029586;28;20088;-84
2021/08/12 08:22:25;;;;;;;9.77;6.90;;;;;;;-145.71;100.00;60690.53;5020683;28;20133;-84
2021/08/12 08:24:51;;;;;;;8.77;5.63;;;;;;;-145.71;100.00;60690.53;5020869;28;20467;-84
2021/08/12 08:27:16;;;;;;;10.07;6.35;;;;;;;-145.71;100.00;60690.53;5029082;28;20130;-84
2021/08/12 08:29:42;;;;;;;8.23;6.25;;;;;;;-145.71;100.00;60690.53;5026665;28;20779;-84
2021/08/12 08:32:08;;;;;;;11.40;5.93;;;;;;;-145.71;100.00;60690.53;4996699;28;20021;-84
2021/08/12 08:34:33;;;;;;;9.88;6.95;;;;;;;-145.71;100.00;60690.53;5003841;28;20053;-84
2021/08/12 08:36:59;;;;;;;9.30;6.30;;;;;;;-145.71;100.00;60690.53;5003617;28;20061;-84
2021/08/12 08:39:24;;;;;;;13.45;6.00;;;;;;;-145.71;100.00;60690.53;5028730;28;20033;-84
2021/08/12 08:41:51;;;;;;;14.38;6.55;;;;;;;-145.71;100.00;60690.53;5011354;28;20031;-84
2021/08/12 08:44:18;;;;;;;7.45;5.90;;;;;;;-145.71;100.00;60690.53;5021810;28;20136;-84
2021/08/12 08:46:46;;;;;;;9.25;6.25;;;;;;;-145.71;100.00;60690.53;5008927;28;20026;-84
2021/08/12 08:49:13;;;;;;;10.35;5.97;;;;;;;-145.71;100.00;60690.53;5008719;28;20032;-84
2021/08/12 08:51:39;;;;;;;12.70;6.35;;;;;;;-145.71;100.00;60690.53;5026836;28;20021;-84
2021/08/12 08:54:05;;;;;;;10.77;6.82;;;;;;;-145.71;100.00;60690.53;5028298;28;20032;-84
2021/08/12 08:56:31;;;;;;;8.35;6.43;;;;;;;-145.71;100.00;60690.53;5002003;28;20029;-84
2021/08/12 08:58:57;;;;;;;9.13;7.35;;;;;;;-145.71;100.00;60690.53;5003202;28;20033;-84
2021/08/12 09:01:22;;;;;;;10.60;6.05;;;;;;;-145.71;100.00;60690.53;4994751;28;20445;-84
2021/08/12 09:03:49;;;;;;;8.18;5.90;;;;;;;-145.71;100.00;60690.53;5024889;28;20113;-84
2021/08/12 09:06:14;;;;;;;7.53;5.90;;;;;;;-145.71;100.00;60690.53;5015064;28;20072;-85
2021/08/12 09:08:40;;;;;;;5.90;5.30;;;;;;;-145.71;100.00;60690.53;5027907;28;20457;-84
2021/08/12 09:11:05;;;;;;;8.05;6.30;;;;;;;-145.71;100.00;60690.53;5010691;28;20033;-84
2021/08/12 09:13:31;;;;;;;7.70;5.75;;;;;;;-145.71;100.00;60690.53;5011629;28;20021;-85
2021/08/12 09:15:57;;;;;;;7.80;6.63;;;;;;;-145.71;100.00;60690.53;5010128;28;20573;-84
2021/08/12 09:18:24;;;;;;;8.43;5.60;;;;;;;-145.71;100.00;60690.53;5020780;28;20025;-84
2021/08/12 09:20:51;;;;;;;9.15;6.03;;;;;;;-145.71;100.00;60690.53;5020841;28;20048;-84
2021/08/12 09:23:22;;;;;;;7.85;5.68;;;;;;;-145.71;100.00;60690.53;5012974;28;20046;-84
2021/08/12 09:25:49;;;;;;;8.65;6.40;;;;;;;-145.71;100.00;60690.53;5008543;28;20033;-84
2021/08/12 09:28:31;;;;;;;7.55;6.38;;;;;;;-145.71;100.00;60690.53;4996939;28;20401;-84
2021/08/12 09:31:02;;;;;;;10.50;6.35;;;;;;;-145.71;100.00;60690.53;4997635;28;20061;-84
2021/08/12 09:33:40;;;;;;;9.63;6.30;;;;;;;-145.71;100.00;60690.53;5008384;28;20025;-84
2021/08/12 09:36:23;;;;;;;7.93;6.50;;;;;;;-145.71;100.00;60690.53;5028005;28;20029;-83
2021/08/12 09:39:14;;;;;;;7.28;6.47;;;;;;;-145.71;100.00;60690.53;5009868;28;20033;-83
2021/08/12 09:41:48;;;;;;;6.55;5.75;;;;;;;-145.71;100.00;60690.53;4993633;28;20108;-84
2021/08/12 09:44:43;;;;;;;7.35;5.72;;;;;;;-145.71;100.00;60690.53;5010485;28;20040;-84
2021/08/12 09:47:13;;;;;;;7.82;6.97;;;;;;;-145.71;100.00;60690.53;5013660;28;20022;-84
2021/08/12 09:49:50;;;;;;;8.52;6.18;;;;;;;-145.71;100.00;60690.53;5009621;28;20029;-84
2021/08/12 09:52:18;;;;;;;11.85;6.95;;;;;;;-145.71;100.00;60690.53;5020353;28;20125;-84
2021/08/12 09:54:44;;;;;;;9.02;6.53;;;;;;;-145.71;100.00;60690.53;5008040;28;20120;-84
2021/08/12 09:57:21;;;;;;;7.50;6.43;;;;;;;-145.71;100.00;60690.53;5027383;28;20477;-84
2021/08/12 09:59:52;;;;;;;7.30;6.13;;;;;;;-145.71;100.00;60690.53;4993124;28;20104;-84
2021/08/12 10:02:18;;;;;;;8.27;7.15;;;;;;;-145.71;100.00;60690.53;5020920;28;20041;-84
2021/08/12 10:04:44;;;;;;;7.65;6.72;;;;;;;-145.71;100.00;60690.53;5018450;28;20033;-84
2021/08/12 10:07:38;;;;;;;11.32;6.82;;;;;;;-145.71;100.00;60690.53;5012853;28;20041;-83
2021/08/12 10:10:09;;;;;;;8.57;7.40;;;;;;;-145.71;100.00;60690.53;4997433;28;20018;-84
2021/08/12 10:12:35;;;;;;;8.07;6.35;;;;;;;-145.71;100.00;60690.53;5011416;28;20036;-84
2021/08/12 10:15:00;;;;;;;11.68;7.57;;;;;;;-145.71;100.00;60690.53;5002941;28;20025;-84
2021/08/12 10:17:26;;;;;;;7.60;6.80;;;;;;;-145.71;100.00;60690.53;5011380;28;20070;-84
2021/08/12 10:19:52;;;;;;;9.80;7.18;;;;;;;-145.71;100.00;60690.53;5025156;28;20026;-84
2021/08/12 10:22:18;;;;;;;10.10;6.30;;;;;;;-145.71;100.00;60690.53;4998278;28;20041;-84
2021/08/12 10:24:44;;;;;;;7.93;6.13;;;;;;;-145.71;100.00;60690.53;4999561;28;20050;-84
2021/08/12 10:27:12;;;;;;;7.47;6.47;;;;;;;-145.71;100.00;60690.53;5007749;28;20033;-84
2021/08/12 10:29:39;;;;;;;8.18;6.35;;;;;;;-145.71;100.00;60690.53;5010426;28;20120;-85
2021/08/12 10:32:05;;;;;;;10.60;7.15;;;;;;;-145.71;100.00;60690.53;4998565;28;20068;-84
2021/08/12 10:34:31;;;;;;;8.40;7.00;;;;;;;-145.71;100.00;60690.53;5022565;28;20551;-84
2021/08/12 10:36:57;;;;;;;9.90;7.07;;;;;;;-145.71;100.00;60690.53;5010851;28;20034;-84
2021/08/12 10:39:23;;;;;;;13.75;6.95;;;;;;;-145.71;100.00;60690.53;5027264;28;20563;-84
2021/08/12 10:41:50;;;;;;;9.38;5.90;;;;;;;-145.71;100.00;60690.53;5014549;28;20461;-84
2021/08/12 10:44:20;;;;;;;14.65;7.25;;;;;;;-145.71;100.00;60690.53;5034146;28;20033;-84
2021/08/12 10:46:46;;;;;;;12.20;6.78;;;;;;;-145.71;100.00;60690.53;5031316;28;20068;-85
2021/08/12 10:49:34;;;;;;;8.93;6.95;;;;;;;-145.71;100.00;60690.53;5011722;28;20065;-84
2021/08/12 10:52:10;;;;;;;10.05;6.97;;;;;;;-145.71;100.00;60690.53;5010029;28;20080;-85
2021/08/12 10:54:41;;;;;;;7.63;6.93;;;;;;;-145.71;100.00;60690.53;5002672;28;20044;-84
2021/08/12 10:57:12;;;;;;;10.23;7.07;;;;;;;-145.71;100.00;60690.53;5016551;28;20708;-84